sensor_id;sensor_type;location;lat;lon;timestamp;pressure;altitude;pressure_sealevel;temperature;humidity
1926;BME280;964;42.606;23.588;2023-04-28T00:00:31;94717.94;;;23.71;22.85
1926;BME280;964;42.606;23.588;2023-04-28T00:02:58;94714.56;;;24.34;22.36
1926;BME280;964;42.606;23.588;2023-04-28T00:05:25;94720.16;;;23.60;23.03
1926;BME280;964;42.606;23.588;2023-04-28T00:07:52;94716.22;;;24.44;22.37
1926;BME280;964;42.606;23.588;2023-04-28T00:10:19;94718.50;;;24.33;22.41
1926;BME280;964;42.606;23.588;2023-04-28T00:12:45;94718.19;;;23.89;22.89
1926;BME280;964;42.606;23.588;2023-04-28T00:15:13;94723.75;;;23.25;23.54
1926;BME280;964;42.606;23.588;2023-04-28T00:17:40;94719.72;;;23.62;23.21
1926;BME280;964;42.606;23.588;2023-04-28T00:20:08;94728.56;;;23.50;23.73
1926;BME280;964;42.606;23.588;2023-04-28T00:22:35;94721.00;;;23.99;23.03
1926;BME280;964;42.606;23.588;2023-04-28T00:25:05;94722.84;;;23.89;22.91
1926;BME280;964;42.606;23.588;2023-04-28T00:27:32;94716.72;;;23.72;23.11
1926;BME280;964;42.606;23.588;2023-04-28T00:29:59;94721.56;;;23.65;23.36
1926;BME280;964;42.606;23.588;2023-04-28T00:32:27;94724.13;;;23.11;23.83
1926;BME280;964;42.606;23.588;2023-04-28T00:34:56;94732.91;;;23.88;23.31
1926;BME280;964;42.606;23.588;2023-04-28T00:37:23;94732.59;;;23.13;23.47
1926;BME280;964;42.606;23.588;2023-04-28T00:39:53;94727.69;;;23.24;23.30
1926;BME280;964;42.606;23.588;2023-04-28T00:42:20;94731.00;;;23.60;22.83
1926;BME280;964;42.606;23.588;2023-04-28T00:44:47;94736.28;;;23.19;23.37
1926;BME280;964;42.606;23.588;2023-04-28T00:47:16;94731.97;;;24.08;22.47
1926;BME280;964;42.606;23.588;2023-04-28T00:49:45;94729.13;;;23.99;23.10
1926;BME280;964;42.606;23.588;2023-04-28T00:52:14;94729.53;;;24.26;22.16
1926;BME280;964;42.606;23.588;2023-04-28T00:54:41;94733.03;;;23.56;22.60
1926;BME280;964;42.606;23.588;2023-04-28T00:57:08;94732.34;;;24.35;22.46
1926;BME280;964;42.606;23.588;2023-04-28T00:59:35;94732.34;;;23.93;22.35
1926;BME280;964;42.606;23.588;2023-04-28T01:02:02;94735.94;;;23.90;22.58
1926;BME280;964;42.606;23.588;2023-04-28T01:04:30;94744.41;;;23.92;22.49
1926;BME280;964;42.606;23.588;2023-04-28T01:06:59;94743.31;;;24.03;22.68
1926;BME280;964;42.606;23.588;2023-04-28T01:09:26;94755.63;;;23.17;23.94
1926;BME280;964;42.606;23.588;2023-04-28T01:11:52;94752.47;;;23.51;23.76
1926;BME280;964;42.606;23.588;2023-04-28T01:14:19;94747.25;;;23.44;23.86
1926;BME280;964;42.606;23.588;2023-04-28T01:16:46;94749.22;;;24.14;23.03
1926;BME280;964;42.606;23.588;2023-04-28T01:19:17;94746.13;;;24.66;23.10
1926;BME280;964;42.606;23.588;2023-04-28T01:21:45;94748.34;;;24.17;22.90
1926;BME280;964;42.606;23.588;2023-04-28T01:24:13;94751.75;;;24.05;23.00
1926;BME280;964;42.606;23.588;2023-04-28T01:26:40;94749.16;;;22.99;24.03
1926;BME280;964;42.606;23.588;2023-04-28T01:29:07;94757.09;;;22.89;23.46
1926;BME280;964;42.606;23.588;2023-04-28T01:31:34;94745.34;;;23.86;22.84
1926;BME280;964;42.606;23.588;2023-04-28T01:34:00;94748.13;;;23.09;23.63
1926;BME280;964;42.606;23.588;2023-04-28T01:36:27;94748.59;;;23.52;22.87
1926;BME280;964;42.606;23.588;2023-04-28T01:38:54;94747.41;;;23.53;22.84
1926;BME280;964;42.606;23.588;2023-04-28T01:41:22;94754.44;;;21.98;24.29
1926;BME280;964;42.606;23.588;2023-04-28T01:43:49;94750.47;;;22.58;23.30
1926;BME280;964;42.606;23.588;2023-04-28T01:46:16;94749.97;;;22.95;22.88
1926;BME280;964;42.606;23.588;2023-04-28T01:48:42;94754.88;;;23.17;22.89
1926;BME280;964;42.606;23.588;2023-04-28T01:51:09;94755.19;;;22.54;23.26
1926;BME280;964;42.606;23.588;2023-04-28T01:53:36;94751.97;;;22.59;23.46
1926;BME280;964;42.606;23.588;2023-04-28T01:56:02;94759.13;;;22.69;23.39
1926;BME280;964;42.606;23.588;2023-04-28T01:58:30;94754.38;;;22.73;23.12
1926;BME280;964;42.606;23.588;2023-04-28T02:00:57;94760.84;;;22.60;23.25
1926;BME280;964;42.606;23.588;2023-04-28T02:03:24;94761.19;;;22.62;23.22
1926;BME280;964;42.606;23.588;2023-04-28T02:05:52;94757.00;;;22.41;23.15
1926;BME280;964;42.606;23.588;2023-04-28T02:08:18;94754.16;;;22.48;23.57
1926;BME280;964;42.606;23.588;2023-04-28T02:10:45;94759.28;;;22.78;22.73
1926;BME280;964;42.606;23.588;2023-04-28T02:13:12;94757.22;;;22.14;23.31
1926;BME280;964;42.606;23.588;2023-04-28T02:15:40;94759.97;;;22.46;23.33
1926;BME280;964;42.606;23.588;2023-04-28T02:18:07;94763.75;;;21.54;23.96
1926;BME280;964;42.606;23.588;2023-04-28T02:20:34;94755.69;;;21.93;23.58
1926;BME280;964;42.606;23.588;2023-04-28T02:23:01;94760.47;;;21.66;24.17
1926;BME280;964;42.606;23.588;2023-04-28T02:25:28;94769.44;;;21.60;24.22
1926;BME280;964;42.606;23.588;2023-04-28T02:27:55;94776.22;;;21.68;24.31
1926;BME280;964;42.606;23.588;2023-04-28T02:30:22;94772.06;;;21.63;24.05
1926;BME280;964;42.606;23.588;2023-04-28T02:32:50;94771.41;;;21.36;24.42
1926;BME280;964;42.606;23.588;2023-04-28T02:35:17;94769.31;;;22.26;23.80
1926;BME280;964;42.606;23.588;2023-04-28T02:37:44;94773.88;;;22.09;23.52
1926;BME280;964;42.606;23.588;2023-04-28T02:40:11;94781.28;;;22.25;23.32
1926;BME280;964;42.606;23.588;2023-04-28T02:42:38;94777.50;;;22.03;23.36
1926;BME280;964;42.606;23.588;2023-04-28T02:45:05;94768.22;;;22.75;23.53
1926;BME280;964;42.606;23.588;2023-04-28T02:47:32;94779.81;;;22.40;24.01
1926;BME280;964;42.606;23.588;2023-04-28T02:50:01;94776.28;;;22.43;23.91
1926;BME280;964;42.606;23.588;2023-04-28T02:52:28;94778.72;;;21.78;24.19
1926;BME280;964;42.606;23.588;2023-04-28T02:54:55;94789.97;;;21.96;24.25
1926;BME280;964;42.606;23.588;2023-04-28T02:57:22;94784.81;;;22.58;23.48
1926;BME280;964;42.606;23.588;2023-04-28T02:59:49;94787.47;;;22.77;23.72
1926;BME280;964;42.606;23.588;2023-04-28T03:02:16;94791.53;;;22.69;23.23
1926;BME280;964;42.606;23.588;2023-04-28T03:04:42;94791.03;;;22.19;23.50
1926;BME280;964;42.606;23.588;2023-04-28T03:07:10;94791.06;;;22.55;23.77
1926;BME280;964;42.606;23.588;2023-04-28T03:09:37;94791.72;;;21.83;23.39
1926;BME280;964;42.606;23.588;2023-04-28T03:12:04;94794.56;;;22.35;23.64
1926;BME280;964;42.606;23.588;2023-04-28T03:14:31;94801.94;;;21.95;24.09
1926;BME280;964;42.606;23.588;2023-04-28T03:16:57;94799.91;;;21.99;23.95
1926;BME280;964;42.606;23.588;2023-04-28T03:19:24;94802.91;;;21.62;24.36
1926;BME280;964;42.606;23.588;2023-04-28T03:21:51;94800.72;;;22.36;23.54
1926;BME280;964;42.606;23.588;2023-04-28T03:24:19;94806.91;;;22.72;23.46
1926;BME280;964;42.606;23.588;2023-04-28T03:26:46;94802.66;;;22.16;23.49
1926;BME280;964;42.606;23.588;2023-04-28T03:29:13;94812.56;;;22.22;23.81
1926;BME280;964;42.606;23.588;2023-04-28T03:31:40;94819.13;;;22.41;23.70
1926;BME280;964;42.606;23.588;2023-04-28T03:34:06;94835.97;;;21.43;24.63
1926;BME280;964;42.606;23.588;2023-04-28T03:36:33;94830.44;;;21.73;24.88
1926;BME280;964;42.606;23.588;2023-04-28T03:39:00;94830.19;;;21.87;24.41
1926;BME280;964;42.606;23.588;2023-04-28T03:41:28;94831.38;;;22.81;23.97
1926;BME280;964;42.606;23.588;2023-04-28T03:43:55;94841.78;;;22.83;23.71
1926;BME280;964;42.606;23.588;2023-04-28T03:46:22;94847.53;;;23.17;23.78
1926;BME280;964;42.606;23.588;2023-04-28T03:48:48;94853.53;;;22.92;24.35
1926;BME280;964;42.606;23.588;2023-04-28T03:51:15;94848.97;;;22.89;24.18
1926;BME280;964;42.606;23.588;2023-04-28T03:53:42;94856.75;;;22.87;24.19
1926;BME280;964;42.606;23.588;2023-04-28T03:56:08;94858.56;;;22.74;24.29
1926;BME280;964;42.606;23.588;2023-04-28T03:58:39;94859.97;;;23.15;24.49
1926;BME280;964;42.606;23.588;2023-04-28T04:01:06;94873.41;;;22.27;25.23
1926;BME280;964;42.606;23.588;2023-04-28T04:03:33;94878.66;;;21.94;25.67
1926;BME280;964;42.606;23.588;2023-04-28T04:06:00;94887.31;;;21.82;25.85
1926;BME280;964;42.606;23.588;2023-04-28T04:08:26;94882.94;;;22.12;25.68
1926;BME280;964;42.606;23.588;2023-04-28T04:10:53;94882.69;;;22.45;24.83
1926;BME280;964;42.606;23.588;2023-04-28T04:13:20;94894.88;;;22.34;25.00
1926;BME280;964;42.606;23.588;2023-04-28T04:15:48;94893.00;;;22.31;24.85
1926;BME280;964;42.606;23.588;2023-04-28T04:18:16;94896.66;;;21.78;25.72
1926;BME280;964;42.606;23.588;2023-04-28T04:20:44;94895.84;;;22.43;25.16
1926;BME280;964;42.606;23.588;2023-04-28T04:23:10;94889.88;;;22.52;25.10
1926;BME280;964;42.606;23.588;2023-04-28T04:25:37;94896.72;;;22.57;24.66
1926;BME280;964;42.606;23.588;2023-04-28T04:28:04;94903.06;;;23.06;24.11
1926;BME280;964;42.606;23.588;2023-04-28T04:30:31;94892.75;;;23.33;24.17
1926;BME280;964;42.606;23.588;2023-04-28T04:32:59;94893.44;;;23.37;23.80
1926;BME280;964;42.606;23.588;2023-04-28T04:35:25;94892.50;;;23.11;24.35
1926;BME280;964;42.606;23.588;2023-04-28T04:37:52;94890.22;;;23.26;23.90
1926;BME280;964;42.606;23.588;2023-04-28T04:40:19;94899.03;;;23.30;23.79
1926;BME280;964;42.606;23.588;2023-04-28T04:42:46;94896.66;;;23.16;24.34
1926;BME280;964;42.606;23.588;2023-04-28T04:45:12;94889.50;;;23.41;24.38
1926;BME280;964;42.606;23.588;2023-04-28T04:47:39;94887.22;;;23.56;24.47
1926;BME280;964;42.606;23.588;2023-04-28T04:50:08;94900.06;;;23.52;24.14
1926;BME280;964;42.606;23.588;2023-04-28T04:52:34;94892.44;;;23.79;23.45
1926;BME280;964;42.606;23.588;2023-04-28T04:55:01;94893.78;;;23.23;24.43
1926;BME280;964;42.606;23.588;2023-04-28T04:57:28;94895.50;;;23.65;24.61
1926;BME280;964;42.606;23.588;2023-04-28T04:59:55;94898.16;;;23.98;24.33
1926;BME280;964;42.606;23.588;2023-04-28T05:02:22;94901.84;;;23.75;24.15
1926;BME280;964;42.606;23.588;2023-04-28T05:04:48;94904.03;;;24.09;24.16
1926;BME280;964;42.606;23.588;2023-04-28T05:07:16;94894.56;;;24.46;23.93
1926;BME280;964;42.606;23.588;2023-04-28T05:09:43;94903.25;;;23.79;24.45
1926;BME280;964;42.606;23.588;2023-04-28T05:12:10;94904.41;;;24.11;24.09
1926;BME280;964;42.606;23.588;2023-04-28T05:14:36;94903.78;;;24.48;24.05
1926;BME280;964;42.606;23.588;2023-04-28T05:17:03;94902.03;;;24.41;23.92
1926;BME280;964;42.606;23.588;2023-04-28T05:19:30;94906.94;;;24.18;24.33
1926;BME280;964;42.606;23.588;2023-04-28T05:21:57;94906.84;;;24.21;24.29
1926;BME280;964;42.606;23.588;2023-04-28T05:24:26;94910.81;;;24.33;24.42
1926;BME280;964;42.606;23.588;2023-04-28T05:26:53;94905.25;;;24.65;23.95
1926;BME280;964;42.606;23.588;2023-04-28T05:29:22;94909.19;;;24.77;23.84
1926;BME280;964;42.606;23.588;2023-04-28T05:31:48;94905.53;;;24.96;23.46
1926;BME280;964;42.606;23.588;2023-04-28T05:34:15;94902.50;;;25.07;23.13
1926;BME280;964;42.606;23.588;2023-04-28T05:36:43;94908.06;;;25.16;23.42
1926;BME280;964;42.606;23.588;2023-04-28T05:39:09;94899.47;;;25.43;23.43
1926;BME280;964;42.606;23.588;2023-04-28T05:41:37;94913.25;;;25.48;23.66
1926;BME280;964;42.606;23.588;2023-04-28T05:44:04;94916.06;;;25.32;23.42
1926;BME280;964;42.606;23.588;2023-04-28T05:46:31;94903.91;;;25.49;23.40
1926;BME280;964;42.606;23.588;2023-04-28T05:48:57;94911.06;;;25.68;23.36
1926;BME280;964;42.606;23.588;2023-04-28T05:51:24;94913.91;;;25.27;23.54
1926;BME280;964;42.606;23.588;2023-04-28T05:53:51;94916.50;;;25.43;23.52
1926;BME280;964;42.606;23.588;2023-04-28T05:56:18;94913.09;;;26.24;23.12
1926;BME280;964;42.606;23.588;2023-04-28T05:58:46;94908.84;;;25.89;23.39
1926;BME280;964;42.606;23.588;2023-04-28T06:01:14;94909.97;;;25.78;23.22
1926;BME280;964;42.606;23.588;2023-04-28T06:03:41;94915.53;;;25.75;22.60
1926;BME280;964;42.606;23.588;2023-04-28T06:06:09;94918.66;;;25.48;22.77
1926;BME280;964;42.606;23.588;2023-04-28T06:08:37;94916.16;;;26.26;22.87
1926;BME280;964;42.606;23.588;2023-04-28T06:11:03;94920.00;;;25.31;23.25
1926;BME280;964;42.606;23.588;2023-04-28T06:13:30;94919.47;;;25.96;22.96
1926;BME280;964;42.606;23.588;2023-04-28T06:15:58;94915.91;;;26.33;22.43
1926;BME280;964;42.606;23.588;2023-04-28T06:18:25;94908.50;;;26.99;21.83
1926;BME280;964;42.606;23.588;2023-04-28T06:20:55;94908.38;;;26.80;21.58
1926;BME280;964;42.606;23.588;2023-04-28T06:23:21;94909.44;;;26.18;19.91
1926;BME280;964;42.606;23.588;2023-04-28T06:25:48;94920.31;;;25.58;22.05
1926;BME280;964;42.606;23.588;2023-04-28T06:28:15;94906.22;;;26.75;20.66
1926;BME280;964;42.606;23.588;2023-04-28T06:30:41;94909.09;;;26.16;20.38
1926;BME280;964;42.606;23.588;2023-04-28T06:33:09;94907.31;;;26.34;19.53
1926;BME280;964;42.606;23.588;2023-04-28T06:35:36;94925.63;;;25.74;20.13
1926;BME280;964;42.606;23.588;2023-04-28T06:38:05;94928.34;;;25.24;20.81
1926;BME280;964;42.606;23.588;2023-04-28T06:40:32;94926.03;;;25.85;19.78
1926;BME280;964;42.606;23.588;2023-04-28T06:42:58;94912.84;;;26.74;18.79
1926;BME280;964;42.606;23.588;2023-04-28T06:45:25;94909.88;;;27.03;19.49
1926;BME280;964;42.606;23.588;2023-04-28T06:47:52;94907.75;;;27.87;19.02
1926;BME280;964;42.606;23.588;2023-04-28T06:50:22;94908.69;;;27.44;19.66
1926;BME280;964;42.606;23.588;2023-04-28T06:52:48;94903.34;;;26.92;19.51
1926;BME280;964;42.606;23.588;2023-04-28T06:55:15;94908.81;;;27.41;19.02
1926;BME280;964;42.606;23.588;2023-04-28T06:57:42;94901.41;;;26.79;19.88
1926;BME280;964;42.606;23.588;2023-04-28T07:00:10;94904.13;;;27.41;19.68
1926;BME280;964;42.606;23.588;2023-04-28T07:02:37;94901.13;;;26.77;19.65
1926;BME280;964;42.606;23.588;2023-04-28T07:05:04;94892.16;;;27.29;19.60
1926;BME280;964;42.606;23.588;2023-04-28T07:07:33;94901.69;;;27.25;19.43
1926;BME280;964;42.606;23.588;2023-04-28T07:09:59;94902.38;;;28.14;18.25
1926;BME280;964;42.606;23.588;2023-04-28T07:12:26;94897.19;;;28.35;18.05
1926;BME280;964;42.606;23.588;2023-04-28T07:14:53;94911.44;;;28.48;17.70
1926;BME280;964;42.606;23.588;2023-04-28T07:17:20;94892.81;;;28.46;18.32
1926;BME280;964;42.606;23.588;2023-04-28T07:19:46;94894.63;;;28.58;18.35
1926;BME280;964;42.606;23.588;2023-04-28T07:22:15;94900.09;;;28.31;19.42
1926;BME280;964;42.606;23.588;2023-04-28T07:24:44;94900.53;;;29.26;18.68
1926;BME280;964;42.606;23.588;2023-04-28T07:27:11;94887.88;;;29.05;18.21
1926;BME280;964;42.606;23.588;2023-04-28T07:29:38;94891.03;;;29.54;17.73
1926;BME280;964;42.606;23.588;2023-04-28T07:32:04;94889.28;;;29.33;18.45
1926;BME280;964;42.606;23.588;2023-04-28T07:34:33;94893.09;;;28.76;17.80
1926;BME280;964;42.606;23.588;2023-04-28T07:37:00;94889.44;;;28.88;18.23
1926;BME280;964;42.606;23.588;2023-04-28T07:39:27;94902.38;;;29.11;18.16
1926;BME280;964;42.606;23.588;2023-04-28T07:41:55;94890.69;;;29.61;18.48
1926;BME280;964;42.606;23.588;2023-04-28T07:44:23;94895.22;;;29.64;17.59
1926;BME280;964;42.606;23.588;2023-04-28T07:46:50;94902.47;;;29.67;17.89
1926;BME280;964;42.606;23.588;2023-04-28T07:49:16;94895.81;;;30.16;17.50
1926;BME280;964;42.606;23.588;2023-04-28T07:51:43;94897.59;;;29.72;17.64
1926;BME280;964;42.606;23.588;2023-04-28T07:54:10;94894.25;;;30.39;17.58
1926;BME280;964;42.606;23.588;2023-04-28T07:56:37;94895.28;;;30.27;17.49
1926;BME280;964;42.606;23.588;2023-04-28T07:59:05;94893.94;;;30.60;17.68
1926;BME280;964;42.606;23.588;2023-04-28T08:01:31;94901.84;;;29.73;17.98
1926;BME280;964;42.606;23.588;2023-04-28T08:03:58;94905.22;;;29.67;17.96
1926;BME280;964;42.606;23.588;2023-04-28T08:06:25;94892.13;;;29.72;18.03
1926;BME280;964;42.606;23.588;2023-04-28T08:08:52;94887.41;;;31.31;17.32
1926;BME280;964;42.606;23.588;2023-04-28T08:11:18;94885.91;;;31.30;17.14
1926;BME280;964;42.606;23.588;2023-04-28T08:13:45;94879.13;;;31.26;16.70
1926;BME280;964;42.606;23.588;2023-04-28T08:16:14;94880.44;;;31.30;16.99
1926;BME280;964;42.606;23.588;2023-04-28T08:18:40;94877.00;;;32.05;15.79
1926;BME280;964;42.606;23.588;2023-04-28T08:21:07;94873.72;;;31.66;16.44
1926;BME280;964;42.606;23.588;2023-04-28T08:23:34;94877.16;;;31.61;17.44
1926;BME280;964;42.606;23.588;2023-04-28T08:26:01;94887.25;;;30.61;17.17
1926;BME280;964;42.606;23.588;2023-04-28T08:28:27;94877.69;;;31.30;16.75
1926;BME280;964;42.606;23.588;2023-04-28T08:30:54;94865.84;;;31.53;15.84
1926;BME280;964;42.606;23.588;2023-04-28T08:33:24;94869.16;;;31.78;17.58
1926;BME280;964;42.606;23.588;2023-04-28T08:35:50;94869.94;;;32.65;17.24
1926;BME280;964;42.606;23.588;2023-04-28T08:38:17;94857.38;;;32.58;15.83
1926;BME280;964;42.606;23.588;2023-04-28T08:40:44;94862.31;;;32.54;15.38
1926;BME280;964;42.606;23.588;2023-04-28T08:43:11;94873.66;;;30.52;17.66
1926;BME280;964;42.606;23.588;2023-04-28T08:45:40;94855.88;;;32.31;16.02
1926;BME280;964;42.606;23.588;2023-04-28T08:48:16;94866.09;;;31.21;16.74
1926;BME280;964;42.606;23.588;2023-04-28T08:50:48;94857.91;;;31.96;16.18
1926;BME280;964;42.606;23.588;2023-04-28T08:53:21;94857.50;;;31.63;16.19
1926;BME280;964;42.606;23.588;2023-04-28T08:55:51;94857.25;;;32.01;15.71
1926;BME280;964;42.606;23.588;2023-04-28T08:58:21;94848.81;;;32.71;15.47
1926;BME280;964;42.606;23.588;2023-04-28T09:00:50;94832.75;;;33.26;15.82
1926;BME280;964;42.606;23.588;2023-04-28T09:03:16;94840.25;;;32.94;15.91
1926;BME280;964;42.606;23.588;2023-04-28T09:05:43;94853.53;;;32.04;15.55
1926;BME280;964;42.606;23.588;2023-04-28T09:08:11;94842.56;;;32.04;15.46
1926;BME280;964;42.606;23.588;2023-04-28T09:10:38;94844.50;;;31.98;16.00
1926;BME280;964;42.606;23.588;2023-04-28T09:13:05;94844.81;;;32.72;15.90
1926;BME280;964;42.606;23.588;2023-04-28T09:15:33;94836.38;;;33.43;15.35
1926;BME280;964;42.606;23.588;2023-04-28T09:18:01;94835.34;;;33.04;15.92
1926;BME280;964;42.606;23.588;2023-04-28T09:20:29;94833.38;;;33.84;14.70
1926;BME280;964;42.606;23.588;2023-04-28T09:23:13;94835.88;;;34.69;14.48
1926;BME280;964;42.606;23.588;2023-04-28T09:25:40;94832.41;;;33.92;14.88
1926;BME280;964;42.606;23.588;2023-04-28T09:28:21;94825.88;;;33.84;14.92
1926;BME280;964;42.606;23.588;2023-04-28T09:30:47;94829.38;;;33.37;14.52
1926;BME280;964;42.606;23.588;2023-04-28T09:33:14;94826.47;;;33.57;15.14
1926;BME280;964;42.606;23.588;2023-04-28T09:35:41;94823.03;;;33.68;14.68
1926;BME280;964;42.606;23.588;2023-04-28T09:38:09;94822.88;;;34.75;13.57
1926;BME280;964;42.606;23.588;2023-04-28T09:40:53;94812.59;;;35.09;14.74
1926;BME280;964;42.606;23.588;2023-04-28T09:43:24;94805.88;;;35.15;14.39
1926;BME280;964;42.606;23.588;2023-04-28T09:45:51;94803.78;;;35.55;14.28
1926;BME280;964;42.606;23.588;2023-04-28T09:48:25;94792.13;;;35.95;13.73
1926;BME280;964;42.606;23.588;2023-04-28T09:50:52;94792.81;;;34.99;14.35
1926;BME280;964;42.606;23.588;2023-04-28T09:53:21;94789.03;;;35.41;14.68
1926;BME280;964;42.606;23.588;2023-04-28T09:55:49;94792.97;;;35.73;13.93
1926;BME280;964;42.606;23.588;2023-04-28T09:58:19;94784.47;;;35.55;13.46
1926;BME280;964;42.606;23.588;2023-04-28T10:00:51;94785.31;;;35.16;14.12
1926;BME280;964;42.606;23.588;2023-04-28T10:03:20;94786.81;;;35.06;14.47
1926;BME280;964;42.606;23.588;2023-04-28T10:05:47;94773.22;;;36.16;14.36
1926;BME280;964;42.606;23.588;2023-04-28T10:08:15;94775.56;;;35.95;13.36
1926;BME280;964;42.606;23.588;2023-04-28T10:10:42;94775.56;;;34.82;14.24
1926;BME280;964;42.606;23.588;2023-04-28T10:13:10;94769.78;;;35.24;13.66
1926;BME280;964;42.606;23.588;2023-04-28T10:15:39;94770.69;;;35.66;13.90
1926;BME280;964;42.606;23.588;2023-04-28T10:18:06;94761.47;;;36.04;12.87
1926;BME280;964;42.606;23.588;2023-04-28T10:20:34;94758.03;;;36.33;13.08
1926;BME280;964;42.606;23.588;2023-04-28T10:26:09;94754.69;;;36.46;13.17
1926;BME280;964;42.606;23.588;2023-04-28T10:28:43;94757.44;;;36.05;13.37
1926;BME280;964;42.606;23.588;2023-04-28T10:31:13;94760.16;;;35.59;13.75
1926;BME280;964;42.606;23.588;2023-04-28T10:33:41;94763.78;;;34.92;13.72
1926;BME280;964;42.606;23.588;2023-04-28T10:36:09;94767.22;;;34.15;13.11
1926;BME280;964;42.606;23.588;2023-04-28T10:39:08;94750.63;;;35.54;12.69
1926;BME280;964;42.606;23.588;2023-04-28T10:41:36;94751.34;;;35.71;13.49
1926;BME280;964;42.606;23.588;2023-04-28T10:47:05;94751.72;;;35.23;14.61
1926;BME280;964;42.606;23.588;2023-04-28T10:50:07;94745.41;;;36.08;13.25
1926;BME280;964;42.606;23.588;2023-04-28T10:52:49;94735.56;;;36.54;13.58
1926;BME280;964;42.606;23.588;2023-04-28T10:55:27;94731.31;;;36.17;14.26
1926;BME280;964;42.606;23.588;2023-04-28T10:58:29;94737.91;;;35.34;15.08
1926;BME280;964;42.606;23.588;2023-04-28T11:01:23;94723.69;;;36.94;13.66
1926;BME280;964;42.606;23.588;2023-04-28T11:03:52;94728.00;;;36.60;12.58
1926;BME280;964;42.606;23.588;2023-04-28T11:06:26;94712.56;;;37.24;12.45
1926;BME280;964;42.606;23.588;2023-04-28T11:08:53;94708.38;;;38.03;11.84
1926;BME280;964;42.606;23.588;2023-04-28T11:11:23;94713.91;;;36.93;12.69
1926;BME280;964;42.606;23.588;2023-04-28T11:13:50;94714.38;;;37.21;12.56
1926;BME280;964;42.606;23.588;2023-04-28T11:16:20;94712.75;;;36.83;13.17
1926;BME280;964;42.606;23.588;2023-04-28T11:18:54;94716.22;;;36.18;13.62
1926;BME280;964;42.606;23.588;2023-04-28T11:21:23;94714.53;;;35.58;14.03
1926;BME280;964;42.606;23.588;2023-04-28T11:23:50;94709.00;;;35.58;13.34
1926;BME280;964;42.606;23.588;2023-04-28T11:26:18;94699.41;;;37.11;13.36
1926;BME280;964;42.606;23.588;2023-04-28T11:28:46;94705.03;;;36.76;13.64
1926;BME280;964;42.606;23.588;2023-04-28T11:31:14;94695.38;;;37.12;13.07
1926;BME280;964;42.606;23.588;2023-04-28T11:33:45;94689.03;;;38.16;12.57
1926;BME280;964;42.606;23.588;2023-04-28T11:36:27;94700.09;;;38.67;12.73
1926;BME280;964;42.606;23.588;2023-04-28T11:38:55;94698.41;;;36.84;12.65
1926;BME280;964;42.606;23.588;2023-04-28T11:41:22;94698.41;;;37.33;13.26
1926;BME280;964;42.606;23.588;2023-04-28T11:43:49;94693.91;;;38.61;12.56
1926;BME280;964;42.606;23.588;2023-04-28T11:46:17;94677.88;;;38.99;11.68
1926;BME280;964;42.606;23.588;2023-04-28T11:48:45;94685.63;;;38.10;11.32
1926;BME280;964;42.606;23.588;2023-04-28T11:51:34;94691.09;;;37.36;12.68
1926;BME280;964;42.606;23.588;2023-04-28T11:54:02;94683.19;;;38.39;12.17
1926;BME280;964;42.606;23.588;2023-04-28T11:56:29;94672.88;;;39.37;11.63
1926;BME280;964;42.606;23.588;2023-04-28T11:59:03;94660.66;;;39.79;11.89
1926;BME280;964;42.606;23.588;2023-04-28T12:01:31;94659.28;;;40.06;12.08
1926;BME280;964;42.606;23.588;2023-04-28T12:03:58;94652.81;;;40.25;11.10
1926;BME280;964;42.606;23.588;2023-04-28T12:06:26;94657.41;;;39.02;11.80
1926;BME280;964;42.606;23.588;2023-04-28T12:08:55;94668.88;;;37.65;12.89
1926;BME280;964;42.606;23.588;2023-04-28T12:11:26;94664.97;;;38.88;11.68
1926;BME280;964;42.606;23.588;2023-04-28T12:14:03;94645.63;;;39.75;11.22
1926;BME280;964;42.606;23.588;2023-04-28T12:16:38;94645.16;;;39.37;11.00
1926;BME280;964;42.606;23.588;2023-04-28T12:19:08;94634.59;;;39.69;10.87
1926;BME280;964;42.606;23.588;2023-04-28T12:21:36;94638.25;;;38.46;11.83
1926;BME280;964;42.606;23.588;2023-04-28T12:24:18;94655.06;;;37.22;12.99
1926;BME280;964;42.606;23.588;2023-04-28T12:26:45;94637.59;;;38.40;11.63
1926;BME280;964;42.606;23.588;2023-04-28T12:29:34;94626.44;;;38.26;11.60
1926;BME280;964;42.606;23.588;2023-04-28T12:32:03;94624.25;;;38.96;12.08
1926;BME280;964;42.606;23.588;2023-04-28T12:34:29;94623.16;;;39.39;11.01
1926;BME280;964;42.606;23.588;2023-04-28T12:36:58;94613.94;;;39.70;10.96
1926;BME280;964;42.606;23.588;2023-04-28T12:39:26;94629.66;;;38.31;12.00
1926;BME280;964;42.606;23.588;2023-04-28T12:41:52;94627.28;;;37.71;11.58
1926;BME280;964;42.606;23.588;2023-04-28T12:44:20;94613.47;;;38.93;12.01
1926;BME280;964;42.606;23.588;2023-04-28T12:46:47;94614.03;;;39.98;11.52
1926;BME280;964;42.606;23.588;2023-04-28T12:49:14;94602.19;;;40.60;11.44
1926;BME280;964;42.606;23.588;2023-04-28T12:51:41;94604.41;;;38.92;11.54
1926;BME280;964;42.606;23.588;2023-04-28T12:54:08;94607.34;;;38.55;11.61
1926;BME280;964;42.606;23.588;2023-04-28T12:56:36;94597.47;;;39.38;10.89
1926;BME280;964;42.606;23.588;2023-04-28T12:59:03;94609.50;;;38.75;11.23
1926;BME280;964;42.606;23.588;2023-04-28T13:01:30;94607.50;;;38.17;12.12
1926;BME280;964;42.606;23.588;2023-04-28T13:03:57;94602.69;;;38.63;11.61
1926;BME280;964;42.606;23.588;2023-04-28T13:06:25;94598.34;;;39.67;10.11
1926;BME280;964;42.606;23.588;2023-04-28T13:08:52;94586.72;;;40.72;11.11
1926;BME280;964;42.606;23.588;2023-04-28T13:11:19;94605.22;;;38.48;11.78
1926;BME280;964;42.606;23.588;2023-04-28T13:13:47;94597.78;;;38.43;11.72
1926;BME280;964;42.606;23.588;2023-04-28T13:16:13;94583.88;;;39.48;11.87
1926;BME280;964;42.606;23.588;2023-04-28T13:18:40;94588.38;;;39.24;11.84
1926;BME280;964;42.606;23.588;2023-04-28T13:21:07;94590.38;;;38.32;12.57
1926;BME280;964;42.606;23.588;2023-04-28T13:23:34;94588.81;;;38.63;11.81
1926;BME280;964;42.606;23.588;2023-04-28T13:26:00;94591.06;;;37.88;12.71
1926;BME280;964;42.606;23.588;2023-04-28T13:28:28;94603.28;;;37.42;13.44
1926;BME280;964;42.606;23.588;2023-04-28T13:30:56;94587.44;;;38.11;12.61
1926;BME280;964;42.606;23.588;2023-04-28T13:33:23;94589.69;;;39.10;11.79